メインページ
METAR-TAF:

METAR-TAF

空港 :

フレデリクトン国際空港

フレデリクトン, ニューブランズウィック州, カナダ

緯度: 45-52N, 経度: 066-32W, 海抜: 17m

現時点の気象観測

当レポートは1時間0分前の06:00(UTC)に作成
の風 5kt
気温 16°C
湿度 94%
気圧 1020 hPa
視程: 14.5km
高度900ftの曇り

METAR: CYFC 270600Z AUTO 19005KT 9SM OVC009 16/15 A3012 RMK SLP201

時間: 04:00 (07:00 UTC)

予報

当レポートは1時間22分前の05:38(UTC)に作成
予報は27日の 06時(UTC)から 27日の 18時(UTC)まで有効
南/南西の風 10kt
視程: 8.0km
高度800ftの千切れ雲あり
27日の 06時(UTC)から 27日の 14時(UTC)まで一時的に
視程: 10km
高度1000ftの千切れ雲あり
27日の 1400時(UTC)から
の風 8kt
視程: 10km
高度7000ftの千切れ雲あり

TAF: CYFC 270538Z 2706/2718 20010KT 5SM BR BKN008 TEMPO 2706/2714 P6SM NSW BKN010 FM271400 19008KT P6SM BKN070 RMK FCST BASED ON AUTO OBS. NXT FCST BY 270600Z

4,000以上の空港の気象観測と天気予報(METAR報とTAF報)

利用可能な観測所は地図上に黄色い丸と赤い丸で示す。

丸の上にカーソルを重ねると観測所名を参照できる。

次にクリックすると気象観測と天気予報を参照できる。

マップの切り替え:黒色「×」印の緑ボタンをクリックして拡大、「-」印の緑ボタンをクリックして縮小、緑色の三角印をクリックして隣りの地図に切り替え


METAR-TAF: